Indianopolis, Brazil
Current Conditions -  °F | °C
As of 4:00 PM on Thursday 30 Oct 2014 (Local Time) from SBUL Reporting Station
Rain Showers Rain Showers  
Wind Chill: 84°   Ceiling: Unl
Heat Index: 84°   Visibility: 6mi
Dew Point: 59°   Wind: 9mph
Humidity: 42%   Direction: 270°W
Pressure: 29.88"   Gusts: NA
Location:  19.04°S, 47.92°W
Report Text: SBUL 301800Z 27008KT 9999 VCSH FEW035 FEW040TCU 29/15 Q1012
Loading
Personal Weather Stations






























Interactive Weather Map
Tropical Storm Tracking
New forecast layout! Learn more

10-Day Weather Forecast

Advertisements
Track Severe Weather on mobile